createdAt,value
2019-05-17T00:05:37.590Z,9.78
2019-05-17T00:15:41.686Z,10.03
2019-05-17T00:25:47.010Z,9.08
2019-05-17T00:35:50.726Z,9.23
2019-05-17T00:45:54.321Z,9.25
2019-05-17T00:55:57.897Z,6.55
2019-05-17T01:06:01.471Z,6.15
2019-05-17T01:16:07.316Z,6.60
2019-05-17T01:26:10.528Z,7.50
2019-05-17T01:36:14.089Z,7.00
2019-05-17T01:46:17.645Z,7.03
2019-05-17T01:56:21.246Z,7.65
2019-05-17T02:06:26.984Z,7.33
2019-05-17T02:16:30.143Z,8.57
2019-05-17T02:26:33.736Z,8.98
2019-05-17T02:36:37.336Z,9.33
2019-05-17T02:46:43.319Z,10.90
2019-05-17T02:56:46.239Z,9.88
2019-05-17T03:06:52.982Z,8.83
2019-05-17T03:16:55.125Z,7.05
2019-05-17T03:26:58.776Z,8.00
2019-05-17T03:37:06.527Z,8.18
2019-05-17T03:47:07.719Z,7.87
2019-05-17T03:57:13.421Z,7.60
2019-05-17T04:07:16.599Z,9.30
2019-05-17T04:17:22.714Z,9.23
2019-05-17T04:27:25.660Z,9.40
2019-05-17T04:37:29.255Z,8.95
2019-05-17T04:47:33.333Z,10.10
2019-05-17T04:57:37.205Z,9.38
2019-05-17T05:07:43.210Z,10.03
2019-05-17T05:17:46.099Z,11.00
2019-05-17T05:27:51.631Z,11.35
2019-05-17T05:37:54.999Z,8.65
2019-05-17T05:47:58.633Z,7.45
2019-05-17T05:58:02.961Z,7.92
2019-05-17T06:08:06.810Z,7.13
2019-05-17T06:18:12.177Z,8.10
2019-05-17T06:28:15.684Z,7.47
2019-05-17T06:38:19.523Z,7.60
2019-05-17T06:48:23.603Z,7.53
2019-05-17T06:58:27.276Z,8.08
2019-05-17T07:08:30.866Z,7.50
2019-05-17T07:18:34.489Z,19.52
2019-05-17T07:28:40.255Z,7.75
2019-05-17T07:38:43.413Z,7.57
2019-05-17T07:48:49.618Z,7.53
2019-05-17T07:58:52.503Z,6.90
2019-05-17T08:08:56.096Z,12.18
2019-05-17T08:19:00.309Z,6.83
2019-05-17T08:29:04.693Z,7.10
2019-05-17T08:39:10.248Z,5.85
2019-05-17T08:49:13.644Z,7.72
2019-05-17T08:59:17.259Z,8.05
2019-05-17T09:09:20.845Z,8.05
2019-05-17T09:19:24.443Z,9.95
2019-05-17T09:29:29.685Z,8.40
2019-05-17T09:39:35.268Z,7.50
2019-05-17T09:49:39.491Z,7.45
2019-05-17T09:59:43.472Z,8.50
2019-05-17T10:09:47.180Z,7.45
2019-05-17T10:19:50.785Z,7.08
2019-05-17T10:29:54.357Z,6.83
2019-05-17T10:39:57.948Z,6.65
2019-05-17T10:50:01.538Z,7.50
2019-05-17T11:00:06.691Z,6.20
2019-05-17T11:10:11.519Z,7.70
2019-05-17T11:20:15.627Z,7.08
2019-05-17T11:30:19.202Z,6.37
2019-05-17T11:40:22.805Z,6.25
2019-05-17T11:50:26.364Z,6.53
2019-05-17T12:00:30.019Z,6.95
2019-05-17T12:10:33.720Z,7.20
2019-05-17T12:20:38.215Z,7.42
2019-05-17T12:30:41.880Z,7.40
2019-05-17T12:40:45.535Z,10.35
2019-05-17T12:50:49.111Z,7.58
2019-05-17T13:00:52.690Z,8.93
2019-05-17T13:10:57.784Z,7.22
2019-05-17T13:21:02.032Z,7.80
2019-05-17T13:31:06.172Z,8.15
2019-05-17T13:41:09.704Z,8.13
2019-05-17T13:51:13.247Z,11.07
2019-05-17T14:01:16.825Z,8.18
2019-05-17T14:11:20.596Z,8.00
2019-05-17T14:21:24.198Z,8.90
2019-05-17T14:31:27.796Z,10.55
2019-05-17T14:41:31.360Z,9.73
2019-05-17T14:51:34.901Z,9.40
2019-05-17T15:01:38.441Z,10.10
2019-05-17T15:11:42.038Z,10.68
2019-05-17T15:21:45.639Z,11.95
2019-05-17T15:31:51.975Z,13.13
2019-05-17T15:41:54.656Z,12.50
2019-05-17T15:51:58.223Z,9.43
2019-05-17T16:02:01.883Z,11.25
2019-05-17T16:12:05.450Z,10.70
2019-05-17T16:22:09.019Z,12.13
2019-05-17T16:32:12.842Z,9.70
2019-05-17T16:42:16.524Z,10.18
2019-05-17T16:52:20.091Z,9.18
2019-05-17T17:02:23.631Z,10.90
2019-05-17T17:12:27.260Z,10.48
2019-05-17T17:22:31.094Z,10.65
2019-05-17T17:32:34.955Z,9.80
2019-05-17T17:42:38.762Z,11.57
2019-05-17T17:52:42.655Z,10.78
2019-05-17T18:02:46.238Z,9.80
2019-05-17T18:12:49.849Z,9.33
2019-05-17T18:22:53.490Z,12.05
2019-05-17T18:32:57.093Z,8.80
2019-05-17T18:43:00.675Z,8.45
2019-05-17T18:53:06.337Z,9.30
2019-05-17T19:03:10.886Z,11.00
2019-05-17T19:13:14.453Z,10.20
2019-05-17T19:23:18.019Z,10.40
2019-05-17T19:33:21.848Z,15.60
2019-05-17T19:43:25.405Z,16.27
2019-05-17T19:53:29.366Z,16.30
2019-05-17T20:03:32.928Z,16.03
2019-05-17T20:13:36.530Z,17.75
2019-05-17T20:23:43.538Z,16.25
2019-05-17T20:33:45.700Z,18.57
2019-05-17T20:43:49.238Z,16.02
2019-05-17T20:53:52.999Z,20.25
2019-05-17T21:03:56.551Z,14.78
2019-05-17T21:14:00.843Z,13.55
2019-05-17T21:24:05.148Z,15.30
2019-05-17T21:34:08.977Z,12.53
2019-05-17T21:44:12.573Z,14.65
2019-05-17T21:54:16.331Z,10.97
2019-05-17T22:04:19.937Z,12.40
2019-05-17T22:14:23.587Z,12.07
2019-05-17T22:24:27.265Z,12.55
2019-05-17T22:34:30.874Z,12.88
2019-05-17T22:44:34.544Z,13.22
2019-05-17T22:54:38.198Z,12.67
2019-05-17T23:04:41.793Z,13.58
2019-05-17T23:14:45.330Z,11.70
2019-05-17T23:24:48.905Z,10.93
2019-05-17T23:34:52.495Z,11.45
2019-05-17T23:44:56.062Z,12.82
2019-05-17T23:54:59.627Z,12.85
